Chetwynd Airport
CYCQ : now visible

Airfield :











YOU CAN JOIN US ON...

 
LOGIN :

Register | Disclaimer

   EN    FR    IT 

 









Legend :    VFR   Marginal VFR   IFR   Intensive IFR   Very Intensive IFR
Visi :
Ceiling :
>= 8 km
>= 3000ft
5 to 8 km
1000 to 3000 ft
1500m to 5 km
500 to 1000 ft
800 to 1500m
200 to 500 ft
< 800m
< 200 ft
Symbols :   Thunderstorms  Fog  Heavy snow  Heavy precipitations  Wind > 20 kt







- Airport Elevation : 2000 ft
- IATA code : YCQ


CYCQ - Chetwynd

EXPIRED METARs :
  • 210100Z 22009KT 180V240 35SM FEW050 SCT120 BKN140 OVC200 16/05 A2985 RMK SC1AC2AC2CI3 VIRGA NW LAST STFD OBS/NEXT 211300Z SLP121 DENSITY ALT 2700FT
  • 210000Z 24012G17KT 200V270 35SM FEW050 SCT100 BKN130 OVC180 16/05 A2987 RMK SC1AC4AC2CI2 SC TR SLP130 DENSITY ALT 2700FT

TAF N/A
No reported NOTAMs for that airfield.



MET'MAP, your aeronautical weather chart ! - Copyright ORBIFLY December 2007 - Disclaimer

ORBIFLY MET'MAP TEAM :

Programming & Development : Alexandra Zaïnal
Concept & Development : Baudouin d'Aumeries
Co-Development & Prog : Marc-Olivier Méhu
Technical & hardware support : Manuel Goepfert

Contact : metmap@orbifly.com




SOURCES & CREDITS :

   NOAA       Earth
Advisory